メインページ
METAR-TAF:

METAR-TAF

空港 :

対馬, 日本

対馬空港

緯度: 34-17N, 経度: 129-20E, 海抜: 63m

現時点の気象観測

当レポートは49分前の23:00(UTC)に作成
北/北西の風 4kt
気温 7°C
湿度 61%
気圧 1022 hPa
視程10km以上
1,500メートル以下は雲なし、積乱雲なし

METAR: RJDT 182300Z 34004KT CAVOK 07/00 Q1022

時間: 08:49 (23:49 UTC)


TAF: 見つかりません

4,000以上の空港の気象観測と天気予報(METAR報とTAF報)

利用可能な観測所は地図上に黄色い丸と赤い丸で示す。

丸の上にカーソルを重ねると観測所名を参照できる。

次にクリックすると気象観測と天気予報を参照できる。

マップの切り替え:黒色「×」印の緑ボタンをクリックして拡大、「-」印の緑ボタンをクリックして縮小、緑色の三角印をクリックして隣りの地図に切り替え


METAR-TAF: